createdAt,value
2023-04-25T00:00:47.269Z,80.55
2023-04-25T00:03:17.499Z,81.75
2023-04-25T00:05:50.432Z,81.86
2023-04-25T00:08:20.318Z,80.96
2023-04-25T00:10:50.246Z,80.91
2023-04-25T00:13:20.608Z,81.10
2023-04-25T00:15:50.448Z,81.98
2023-04-25T00:18:20.504Z,81.40
2023-04-25T00:20:53.212Z,81.46
2023-04-25T00:23:23.258Z,81.62
2023-04-25T00:25:54.121Z,81.42
2023-04-25T00:28:24.136Z,81.57
2023-04-25T00:30:54.342Z,81.83
2023-04-25T00:33:24.187Z,81.68
2023-04-25T00:35:56.965Z,82.02
2023-04-25T00:38:26.929Z,81.92
2023-04-25T00:40:56.946Z,81.89
2023-04-25T00:43:27.437Z,82.07
2023-04-25T00:45:58.864Z,82.66
2023-04-25T00:48:28.828Z,81.92
2023-04-25T00:51:02.977Z,82.53
2023-04-25T00:53:33.588Z,81.95
2023-04-25T00:56:03.582Z,82.50
2023-04-25T00:58:33.581Z,82.47
2023-04-25T01:01:03.923Z,82.65
2023-04-25T01:03:36.921Z,82.62
2023-04-25T01:06:11.070Z,82.52
2023-04-25T01:08:42.929Z,82.44
2023-04-25T01:11:12.917Z,82.39
2023-04-25T01:13:42.893Z,83.50
2023-04-25T01:16:12.985Z,83.37
2023-04-25T01:18:44.277Z,83.65
2023-04-25T01:21:17.470Z,83.65
2023-04-25T01:23:47.511Z,83.34
2023-04-25T01:26:17.665Z,83.13
2023-04-25T01:28:47.878Z,83.77
2023-04-25T01:31:19.757Z,83.66
2023-04-25T01:33:51.524Z,83.48
2023-04-25T01:36:25.487Z,83.86
2023-04-25T01:38:55.266Z,83.75
2023-04-25T01:41:25.198Z,83.88
2023-04-25T01:43:55.161Z,84.67
2023-04-25T01:46:25.176Z,84.60
2023-04-25T01:48:55.368Z,84.60
2023-04-25T01:51:27.887Z,84.14
2023-04-25T01:54:00.884Z,84.01
2023-04-25T01:56:34.868Z,85.59
2023-04-25T01:59:05.059Z,84.71
2023-04-25T02:01:34.928Z,84.74
2023-04-25T02:04:04.997Z,84.52
2023-04-25T02:06:37.716Z,84.74
2023-04-25T02:09:07.680Z,85.17
2023-04-25T02:11:37.481Z,84.65
2023-04-25T02:14:07.454Z,84.86
2023-04-25T02:16:37.411Z,84.79
2023-04-25T02:19:07.463Z,84.69
2023-04-25T02:21:40.354Z,84.66
2023-04-25T02:24:11.833Z,84.98
2023-04-25T02:26:41.676Z,84.88
2023-04-25T02:29:11.656Z,85.03
2023-04-25T02:31:41.686Z,85.11
2023-04-25T02:34:11.694Z,86.08
2023-04-25T02:36:44.218Z,85.71
2023-04-25T02:39:14.259Z,85.54
2023-04-25T02:41:44.138Z,85.53
2023-04-25T02:44:14.133Z,86.16
2023-04-25T02:46:44.504Z,85.81
2023-04-25T02:49:14.666Z,86.21
2023-04-25T02:51:47.182Z,86.55
2023-04-25T02:54:17.029Z,86.23
2023-04-25T02:56:46.913Z,86.25
2023-04-25T02:59:16.803Z,85.69
2023-04-25T03:01:46.678Z,86.12
2023-04-25T03:04:16.639Z,86.10
2023-04-25T03:06:49.286Z,85.75
2023-04-25T03:09:19.244Z,85.90
2023-04-25T03:11:49.875Z,85.87
2023-04-25T03:14:19.691Z,85.76
2023-04-25T03:16:49.602Z,85.99
2023-04-25T03:19:20.028Z,86.19
2023-04-25T03:21:52.584Z,85.78
2023-04-25T03:24:22.603Z,86.15
2023-04-25T03:26:52.764Z,85.50
2023-04-25T03:29:25.606Z,85.87
2023-04-25T03:31:55.784Z,86.01
2023-04-25T03:34:25.714Z,85.96
2023-04-25T03:36:58.330Z,85.85
2023-04-25T03:39:28.529Z,85.82
2023-04-25T03:41:58.354Z,85.77
2023-04-25T03:44:28.664Z,85.77
2023-04-25T03:46:58.700Z,85.92
2023-04-25T03:49:28.960Z,86.38
2023-04-25T03:52:01.748Z,86.28
2023-04-25T03:54:31.777Z,85.97
2023-04-25T03:57:01.667Z,85.96
2023-04-25T03:59:31.920Z,86.21
2023-04-25T04:02:03.587Z,86.15
2023-04-25T04:04:33.677Z,85.65
2023-04-25T04:07:06.762Z,86.10
2023-04-25T04:09:36.623Z,85.95
2023-04-25T04:12:10.393Z,85.72
2023-04-25T04:14:40.274Z,85.62
2023-04-25T04:17:10.263Z,85.21
2023-04-25T04:19:40.160Z,85.73
2023-04-25T04:22:12.606Z,85.31
2023-04-25T04:24:45.157Z,85.43
2023-04-25T04:27:14.960Z,84.96
2023-04-25T04:29:44.861Z,85.21
2023-04-25T04:32:14.846Z,84.81
2023-04-25T04:34:49.368Z,85.15
2023-04-25T04:37:22.208Z,85.19
2023-04-25T04:39:53.152Z,84.92
2023-04-25T04:42:23.108Z,84.27
2023-04-25T04:44:53.361Z,84.60
2023-04-25T04:47:26.952Z,84.45
2023-04-25T04:49:57.063Z,84.46
2023-04-25T04:52:29.880Z,84.27
2023-04-25T04:55:02.557Z,84.03
2023-04-25T04:57:34.038Z,84.52
2023-04-25T05:00:05.167Z,84.13
2023-04-25T05:02:35.264Z,84.45
2023-04-25T05:05:05.394Z,84.36
2023-04-25T05:07:38.237Z,84.87
2023-04-25T05:10:10.878Z,84.52
2023-04-25T05:12:41.541Z,84.47
2023-04-25T05:15:12.113Z,84.37
2023-04-25T05:17:42.972Z,84.60
2023-04-25T05:20:15.254Z,84.10
2023-04-25T05:22:47.840Z,84.60
2023-04-25T05:25:17.840Z,84.57
2023-04-25T05:27:47.714Z,84.42
2023-04-25T05:30:17.874Z,84.20
2023-04-25T05:32:48.122Z,84.38
2023-04-25T05:35:18.287Z,83.99
2023-04-25T05:37:51.204Z,84.02
2023-04-25T05:40:22.436Z,84.02
2023-04-25T05:42:52.392Z,84.46
2023-04-25T05:45:22.207Z,84.17
2023-04-25T05:47:52.054Z,84.31
2023-04-25T05:50:22.005Z,84.31
2023-04-25T05:52:55.003Z,84.14
2023-04-25T05:55:24.928Z,84.06
2023-04-25T05:57:54.827Z,84.36
2023-04-25T06:00:25.115Z,84.57
2023-04-25T06:02:55.117Z,84.12
2023-04-25T06:05:25.403Z,84.07
2023-04-25T06:07:58.058Z,84.17
2023-04-25T06:10:27.908Z,84.03
2023-04-25T06:12:57.885Z,82.92
2023-04-25T06:15:29.009Z,82.88
2023-04-25T06:17:59.741Z,82.63
2023-04-25T06:20:29.792Z,82.00
2023-04-25T06:23:05.172Z,82.32
2023-04-25T06:25:35.085Z,81.98
2023-04-25T06:28:05.108Z,82.11
2023-04-25T06:30:35.151Z,81.74
2023-04-25T06:33:05.028Z,81.13
2023-04-25T06:35:35.114Z,80.98
2023-04-25T06:38:07.753Z,80.46
2023-04-25T06:40:37.661Z,81.13
2023-04-25T06:43:09.480Z,80.36
2023-04-25T06:45:39.430Z,81.19
2023-04-25T06:48:09.690Z,80.98
2023-04-25T06:50:39.704Z,81.56
2023-04-25T06:53:12.863Z,81.22
2023-04-25T06:55:42.818Z,80.93
2023-04-25T06:58:12.674Z,81.76
2023-04-25T07:00:42.474Z,82.27
2023-04-25T07:03:13.226Z,81.58
2023-04-25T07:05:43.297Z,81.25
2023-04-25T07:08:15.836Z,81.39
2023-04-25T07:10:49.757Z,81.21
2023-04-25T07:13:20.316Z,80.99
2023-04-25T07:15:50.484Z,81.24
2023-04-25T07:18:20.467Z,80.65
2023-04-25T07:20:50.616Z,80.52
2023-04-25T07:23:23.084Z,79.70
2023-04-25T07:25:53.148Z,78.83
2023-04-25T07:28:23.037Z,78.30
2023-04-25T07:30:52.962Z,76.88
2023-04-25T07:33:24.529Z,77.09
2023-04-25T07:35:54.646Z,75.40
2023-04-25T07:38:27.236Z,75.64
2023-04-25T07:40:57.104Z,75.67
2023-04-25T07:43:27.287Z,75.16
2023-04-25T07:45:58.518Z,74.23
2023-04-25T07:48:28.452Z,74.72
2023-04-25T07:50:58.650Z,74.43
2023-04-25T07:53:32.954Z,72.75
2023-04-25T07:56:08.503Z,74.47
2023-04-25T07:58:39.380Z,73.18
2023-04-25T08:01:09.954Z,73.35
2023-04-25T08:03:40.219Z,71.66
2023-04-25T08:06:10.633Z,72.22
2023-04-25T08:08:43.476Z,70.96
2023-04-25T08:11:13.719Z,71.65
2023-04-25T08:13:43.574Z,71.25
2023-04-25T08:16:14.457Z,71.20
2023-04-25T08:18:44.439Z,70.15
2023-04-25T08:21:15.214Z,68.87
2023-04-25T08:23:47.674Z,67.62
2023-04-25T08:26:20.638Z,69.67
2023-04-25T08:28:50.738Z,68.92
2023-04-25T08:31:21.140Z,67.99
2023-04-25T08:33:53.205Z,67.78
2023-04-25T08:36:37.725Z,68.43
2023-04-25T08:39:11.569Z,66.94
2023-04-25T08:41:42.034Z,67.57
2023-04-25T08:44:14.668Z,63.20
2023-04-25T08:46:44.950Z,62.70
2023-04-25T08:49:17.496Z,63.83
2023-04-25T08:51:51.720Z,65.33
2023-04-25T08:54:35.723Z,60.07
2023-04-25T08:57:08.032Z,64.18
2023-04-25T08:59:39.235Z,63.86
2023-04-25T09:02:10.478Z,64.88
2023-04-25T09:04:40.766Z,65.20
2023-04-25T09:07:10.831Z,64.82
2023-04-25T09:09:43.554Z,62.88
2023-04-25T09:12:13.929Z,64.05
2023-04-25T09:14:45.064Z,64.09
2023-04-25T09:17:15.227Z,62.50
2023-04-25T09:19:46.989Z,62.30
2023-04-25T09:22:17.100Z,60.79
2023-04-25T09:24:52.394Z,58.05
2023-04-25T09:27:24.525Z,60.45
2023-04-25T09:30:01.340Z,59.04
2023-04-25T09:32:32.364Z,60.69
2023-04-25T09:35:02.449Z,58.58
2023-04-25T09:37:33.486Z,59.18
2023-04-25T09:40:11.464Z,56.48
2023-04-25T09:42:45.757Z,58.10
2023-04-25T09:45:17.496Z,58.10
2023-04-25T09:47:47.624Z,59.03
2023-04-25T09:50:25.981Z,58.85
2023-04-25T09:53:08.199Z,55.81
2023-04-25T09:55:42.017Z,56.75
2023-04-25T09:58:16.928Z,57.38
2023-04-25T10:00:47.328Z,56.11
2023-04-25T10:03:19.656Z,54.06
2023-04-25T10:05:53.698Z,55.71
2023-04-25T10:08:24.579Z,56.47
2023-04-25T10:10:57.246Z,55.68
2023-04-25T10:13:27.799Z,55.50
2023-04-25T10:15:59.039Z,52.77
2023-04-25T10:18:30.055Z,51.84
2023-04-25T10:21:01.970Z,50.62
2023-04-25T10:23:36.879Z,51.63
2023-04-25T10:26:13.846Z,50.61
2023-04-25T10:29:02.260Z,48.02
2023-04-25T10:31:34.195Z,52.41
2023-04-25T10:34:04.708Z,53.34
2023-04-25T10:36:42.827Z,51.52
2023-04-25T10:39:12.880Z,49.88
2023-04-25T10:42:03.530Z,47.81
2023-04-25T10:44:34.644Z,50.69
2023-04-25T10:47:06.955Z,52.88
2023-04-25T10:49:38.458Z,53.29
2023-04-25T10:52:29.293Z,54.20
2023-04-25T10:55:01.781Z,56.65
2023-04-25T10:57:41.991Z,57.93
2023-04-25T11:00:16.388Z,59.56
2023-04-25T11:02:48.354Z,59.31
2023-04-25T11:05:41.193Z,59.44
2023-04-25T11:08:21.872Z,59.88
2023-04-25T11:10:52.277Z,59.84
2023-04-25T11:13:26.048Z,56.98
2023-04-25T11:16:07.071Z,58.64
2023-04-25T11:18:45.643Z,58.64
2023-04-25T11:21:16.291Z,58.27
2023-04-25T11:23:49.348Z,57.16
2023-04-25T11:26:19.403Z,55.94
2023-04-25T11:29:04.158Z,57.11
2023-04-25T11:31:34.144Z,57.18
2023-04-25T11:34:04.373Z,57.41
2023-04-25T11:36:34.938Z,56.30
2023-04-25T11:39:06.208Z,57.43
2023-04-25T11:41:36.422Z,57.04
2023-04-25T11:44:09.714Z,57.40
2023-04-25T11:46:39.663Z,58.28
2023-04-25T11:49:09.554Z,58.44
2023-04-25T11:51:44.431Z,59.36
2023-04-25T11:54:14.714Z,60.19
2023-04-25T11:56:45.512Z,61.08
2023-04-25T11:59:18.294Z,60.57
2023-04-25T12:01:53.933Z,60.51
2023-04-25T12:04:26.001Z,60.44
2023-04-25T12:06:57.851Z,60.49
2023-04-25T12:09:34.153Z,60.60
2023-04-25T12:12:07.073Z,60.38
2023-04-25T12:14:39.951Z,59.46
2023-04-25T12:17:11.024Z,59.05
2023-04-25T12:19:45.076Z,59.49
2023-04-25T12:22:25.067Z,58.70
2023-04-25T12:24:55.495Z,57.96
2023-04-25T12:27:25.756Z,57.15
2023-04-25T12:29:59.689Z,56.74
2023-04-25T12:32:30.307Z,57.37
2023-04-25T12:35:00.797Z,56.98
2023-04-25T12:37:32.710Z,57.82
2023-04-25T12:40:02.630Z,56.58
2023-04-25T12:42:32.518Z,56.04
2023-04-25T12:45:05.040Z,55.68
2023-04-25T12:47:36.544Z,55.73
2023-04-25T12:50:06.528Z,55.87
2023-04-25T12:52:36.528Z,55.22
2023-04-25T12:55:07.183Z,54.77
2023-04-25T12:57:37.126Z,54.58
2023-04-25T13:00:15.998Z,55.52
2023-04-25T13:02:46.233Z,56.83
2023-04-25T13:05:16.554Z,57.29
2023-04-25T13:07:46.630Z,56.46
2023-04-25T13:10:16.862Z,56.41
2023-04-25T13:12:47.508Z,55.57
2023-04-25T13:15:20.442Z,57.45
2023-04-25T13:17:50.770Z,58.06
2023-04-25T13:20:23.719Z,57.67
2023-04-25T13:22:53.922Z,56.48
2023-04-25T13:25:23.947Z,55.46
2023-04-25T13:27:53.890Z,53.08
2023-04-25T13:30:26.598Z,54.05
2023-04-25T13:32:57.513Z,54.73
2023-04-25T13:35:27.444Z,53.96
2023-04-25T13:37:57.356Z,52.63
2023-04-25T13:40:28.036Z,51.34
2023-04-25T13:42:59.217Z,51.65
2023-04-25T13:45:33.567Z,50.09
2023-04-25T13:48:03.953Z,50.91
2023-04-25T13:50:34.132Z,50.61
2023-04-25T13:53:04.087Z,51.24
2023-04-25T13:55:34.051Z,51.47
2023-04-25T13:58:09.089Z,50.77
2023-04-25T14:00:44.535Z,50.37
2023-04-25T14:03:14.529Z,49.67
2023-04-25T14:05:44.549Z,49.82
2023-04-25T14:08:14.565Z,50.68
2023-04-25T14:10:44.501Z,49.61
2023-04-25T14:13:14.456Z,49.91
2023-04-25T14:15:47.062Z,48.90
2023-04-25T14:18:17.121Z,47.61
2023-04-25T14:20:47.276Z,48.13
2023-04-25T14:23:18.726Z,49.30
2023-04-25T14:25:48.812Z,48.01
2023-04-25T14:28:18.933Z,47.81
2023-04-25T14:30:54.594Z,47.08
2023-04-25T14:33:24.852Z,47.64
2023-04-25T14:35:54.909Z,48.36
2023-04-25T14:38:26.906Z,49.34
2023-04-25T14:40:56.983Z,49.29
2023-04-25T14:43:27.050Z,48.77
2023-04-25T14:45:59.677Z,49.11
2023-04-25T14:48:29.770Z,49.54
2023-04-25T14:51:01.184Z,50.31
2023-04-25T14:53:32.048Z,50.25
2023-04-25T14:56:02.347Z,48.49
2023-04-25T14:58:32.649Z,48.67
2023-04-25T15:01:05.509Z,46.99
2023-04-25T15:03:35.495Z,47.38
2023-04-25T15:06:05.687Z,48.34
2023-04-25T15:08:35.827Z,47.17
2023-04-25T15:11:06.370Z,48.18
2023-04-25T15:13:41.580Z,48.84
2023-04-25T15:16:14.144Z,48.11
2023-04-25T15:18:43.990Z,48.53
2023-04-25T15:21:13.904Z,46.88
2023-04-25T15:23:43.854Z,45.07
2023-04-25T15:26:13.912Z,45.95
2023-04-25T15:28:45.585Z,44.18
2023-04-25T15:31:18.198Z,45.22
2023-04-25T15:33:48.318Z,46.98
2023-04-25T15:36:19.662Z,44.85
2023-04-25T15:38:49.809Z,43.98
2023-04-25T15:41:21.794Z,42.70
2023-04-25T15:43:52.189Z,44.39
2023-04-25T15:46:25.099Z,45.18
2023-04-25T15:48:55.166Z,45.88
2023-04-25T15:51:25.085Z,46.34
2023-04-25T15:53:55.040Z,45.41
2023-04-25T15:56:25.019Z,45.44
2023-04-25T15:58:55.621Z,46.07
2023-04-25T16:01:31.319Z,46.82
2023-04-25T16:04:02.109Z,46.56
2023-04-25T16:06:32.303Z,45.00
2023-04-25T16:09:02.941Z,44.37
2023-04-25T16:11:33.164Z,45.51
2023-04-25T16:14:05.183Z,46.58
2023-04-25T16:16:37.937Z,44.75
2023-04-25T16:19:07.802Z,45.93
2023-04-25T16:21:37.724Z,43.56
2023-04-25T16:24:08.006Z,44.91
2023-04-25T16:26:37.899Z,44.84
2023-04-25T16:29:08.622Z,46.41
2023-04-25T16:31:41.927Z,46.21
2023-04-25T16:34:11.841Z,45.84
2023-04-25T16:36:42.062Z,46.51
2023-04-25T16:39:12.101Z,46.18
2023-04-25T16:41:42.173Z,47.07
2023-04-25T16:44:12.500Z,47.63
2023-04-25T16:46:47.791Z,47.43
2023-04-25T16:49:17.828Z,47.83
2023-04-25T16:51:48.359Z,48.19
2023-04-25T16:54:18.260Z,48.55
2023-04-25T16:56:48.128Z,48.80
2023-04-25T16:59:18.052Z,48.81
2023-04-25T17:01:50.604Z,49.07
2023-04-25T17:04:20.650Z,49.16
2023-04-25T17:06:50.562Z,49.10
2023-04-25T17:09:20.553Z,48.88
2023-04-25T17:11:51.383Z,48.83
2023-04-25T17:14:21.208Z,48.31
2023-04-25T17:16:55.792Z,48.19
2023-04-25T17:19:26.297Z,48.20
2023-04-25T17:21:56.276Z,48.45
2023-04-25T17:24:26.292Z,49.05
2023-04-25T17:26:57.460Z,49.21
2023-04-25T17:29:28.149Z,49.69
2023-04-25T17:32:00.987Z,49.62
2023-04-25T17:34:32.133Z,49.89
2023-04-25T17:37:02.195Z,50.16
2023-04-25T17:39:32.742Z,49.43
2023-04-25T17:42:02.747Z,49.73
2023-04-25T17:44:33.048Z,50.25
2023-04-25T17:47:07.981Z,50.53
2023-04-25T17:49:38.850Z,50.62
2023-04-25T17:52:10.117Z,50.28
2023-04-25T17:54:40.518Z,49.60
2023-04-25T17:57:10.665Z,48.87
2023-04-25T17:59:40.572Z,50.17
2023-04-25T18:02:13.648Z,50.54
2023-04-25T18:04:43.831Z,50.43
2023-04-25T18:07:13.954Z,51.06
2023-04-25T18:09:47.940Z,51.23
2023-04-25T18:12:18.540Z,51.25
2023-04-25T18:14:48.804Z,52.13
2023-04-25T18:17:25.635Z,52.14
2023-04-25T18:19:55.631Z,52.30
2023-04-25T18:22:25.897Z,52.45
2023-04-25T18:24:58.990Z,52.91
2023-04-25T18:27:29.083Z,53.34
2023-04-25T18:29:58.967Z,53.35
2023-04-25T18:32:33.344Z,53.92
2023-04-25T18:35:03.887Z,53.06
2023-04-25T18:37:34.256Z,53.01
2023-04-25T18:40:06.567Z,52.91
2023-04-25T18:42:38.075Z,52.75
2023-04-25T18:45:09.499Z,53.06
2023-04-25T18:47:42.159Z,53.27
2023-04-25T18:50:13.375Z,52.88
2023-04-25T18:52:43.840Z,52.89
2023-04-25T18:55:14.738Z,52.99
2023-04-25T18:57:45.549Z,52.97
2023-04-25T19:00:17.809Z,53.29
2023-04-25T19:02:51.342Z,53.16
2023-04-25T19:05:21.424Z,53.29
2023-04-25T19:07:51.841Z,52.74
2023-04-25T19:10:22.200Z,52.29
2023-04-25T19:12:52.634Z,52.63
2023-04-25T19:15:22.702Z,52.87
2023-04-25T19:17:55.410Z,53.16
2023-04-25T19:20:25.715Z,53.62
2023-04-25T19:22:57.063Z,53.58
2023-04-25T19:25:27.916Z,53.68
2023-04-25T19:28:00.703Z,54.12
2023-04-25T19:30:32.125Z,54.30
2023-04-25T19:33:04.871Z,54.79
2023-04-25T19:35:34.758Z,54.36
2023-04-25T19:38:05.050Z,55.02
2023-04-25T19:40:38.419Z,55.27
2023-04-25T19:43:08.517Z,55.46
2023-04-25T19:45:39.331Z,55.15
2023-04-25T19:48:14.260Z,55.29
2023-04-25T19:50:44.644Z,55.17
2023-04-25T19:53:14.915Z,55.11
2023-04-25T19:55:44.854Z,55.21
2023-04-25T19:58:14.950Z,55.80
2023-04-25T20:00:45.011Z,55.54
2023-04-25T20:03:17.689Z,55.27
2023-04-25T20:05:48.092Z,55.51
2023-04-25T20:08:18.164Z,55.34
2023-04-25T20:10:48.164Z,55.89
2023-04-25T20:13:18.167Z,56.06
2023-04-25T20:15:48.149Z,56.06
2023-04-25T20:18:20.847Z,56.07
2023-04-25T20:20:51.995Z,56.30
2023-04-25T20:23:22.018Z,56.24
2023-04-25T20:25:51.941Z,56.32
2023-04-25T20:28:23.414Z,56.44
2023-04-25T20:30:53.415Z,56.75
2023-04-25T20:33:26.477Z,56.26
2023-04-25T20:35:57.054Z,56.65
2023-04-25T20:38:26.978Z,57.14
2023-04-25T20:40:57.156Z,57.89
2023-04-25T20:43:27.474Z,58.25
2023-04-25T20:45:58.659Z,58.61
2023-04-25T20:48:31.470Z,58.72
2023-04-25T20:51:01.743Z,59.02
2023-04-25T20:53:31.570Z,58.67
2023-04-25T20:56:01.724Z,58.93
2023-04-25T20:58:32.109Z,59.27
2023-04-25T21:01:02.172Z,59.43
2023-04-25T21:03:35.657Z,59.41
2023-04-25T21:06:06.078Z,59.52
2023-04-25T21:08:35.909Z,59.55
2023-04-25T21:11:06.065Z,59.46
2023-04-25T21:13:35.996Z,59.67
2023-04-25T21:16:06.846Z,59.78
2023-04-25T21:18:39.456Z,60.14
2023-04-25T21:21:09.618Z,60.17
2023-04-25T21:23:39.565Z,60.27
2023-04-25T21:26:09.649Z,60.53
2023-04-25T21:28:39.565Z,60.53
2023-04-25T21:31:09.515Z,60.92
2023-04-25T21:33:42.054Z,61.14
2023-04-25T21:36:12.326Z,61.34
2023-04-25T21:38:42.249Z,61.25
2023-04-25T21:41:12.298Z,61.22
2023-04-25T21:43:42.328Z,61.23
2023-04-25T21:46:23.104Z,61.26
2023-04-25T21:48:56.312Z,61.47
2023-04-25T21:51:27.611Z,61.67
2023-04-25T21:53:59.043Z,61.82
2023-04-25T21:56:29.064Z,61.98
2023-04-25T21:58:58.881Z,62.24
2023-04-25T22:01:29.636Z,62.55
2023-04-25T22:04:02.356Z,62.45
2023-04-25T22:06:32.476Z,62.50
2023-04-25T22:09:02.603Z,62.61
2023-04-25T22:11:32.624Z,62.71
2023-04-25T22:14:02.840Z,63.19
2023-04-25T22:16:32.813Z,63.29
2023-04-25T22:19:06.461Z,63.51
2023-04-25T22:21:36.828Z,63.59
2023-04-25T22:24:07.102Z,63.71
2023-04-25T22:26:37.751Z,64.11
2023-04-25T22:29:07.825Z,63.90
2023-04-25T22:31:38.102Z,64.17
2023-04-25T22:34:10.796Z,64.32
2023-04-25T22:36:40.702Z,64.38
2023-04-25T22:39:11.141Z,64.34
2023-04-25T22:41:41.018Z,64.33
2023-04-25T22:44:11.277Z,64.41
2023-04-25T22:46:41.349Z,64.53
2023-04-25T22:49:14.815Z,65.06
2023-04-25T22:51:44.688Z,64.83
2023-04-25T22:54:14.613Z,65.09
2023-04-25T22:56:45.491Z,65.15
2023-04-25T22:59:16.414Z,65.20
2023-04-25T23:01:46.770Z,65.24
2023-04-25T23:04:19.833Z,65.33
2023-04-25T23:06:50.063Z,65.25
2023-04-25T23:09:20.191Z,65.64
2023-04-25T23:11:53.370Z,65.91
2023-04-25T23:14:24.409Z,65.94
2023-04-25T23:16:55.750Z,65.88
2023-04-25T23:19:28.540Z,66.07
2023-04-25T23:21:59.270Z,66.23
2023-04-25T23:24:29.386Z,66.36
2023-04-25T23:26:59.436Z,66.41
2023-04-25T23:29:29.820Z,66.57
2023-04-25T23:31:59.941Z,66.90
2023-04-25T23:34:32.895Z,66.94
2023-04-25T23:37:04.705Z,67.06
2023-04-25T23:39:34.660Z,67.11
2023-04-25T23:42:04.612Z,67.30
2023-04-25T23:44:34.891Z,67.03
2023-04-25T23:47:04.775Z,66.97
2023-04-25T23:49:37.319Z,67.41
2023-04-25T23:52:07.603Z,67.47
2023-04-25T23:54:37.477Z,67.71
2023-04-25T23:57:07.508Z,67.67
2023-04-25T23:59:37.573Z,67.98
